Time;durP1;ratioP1;P1;durP2;ratioP2;P2;SDS_P1;SDS_P2;PMS_P1;PMS_P2;Temp;Humidity;BMP_temperature;BMP_pressure;BME280_temperature;BME280_humidity;BME280_pressure;Samples;Min_cycle;Max_cycle;Signal;HPM_P1;HPM_P2
2022/09/28 00:00:17;;;;;;;1.60;1.50;;;9.80;99.90;;;;;;2050124;28;20137;-71
2022/09/28 00:01:21;;;;;;;1.80;1.70;;;9.80;99.90;;;;;;2049841;29;20596;-71
2022/09/28 00:02:21;;;;;;;2.53;1.60;;;9.80;99.90;;;;;;2041618;29;20478;-71
2022/09/28 00:03:22;;;;;;;2.08;1.73;;;9.80;99.90;;;;;;2041830;29;20024;-71
2022/09/28 00:04:23;;;;;;;2.00;1.80;;;9.80;99.90;;;;;;2049832;29;20031;-71
2022/09/28 00:05:25;;;;;;;2.45;2.17;;;9.80;99.90;;;;;;2049533;28;20091;-70
2022/09/28 00:06:29;;;;;;;2.20;2.00;;;9.80;99.90;;;;;;2049886;29;20068;-72
2022/09/28 00:07:29;;;;;;;2.97;2.30;;;9.80;99.90;;;;;;2042206;29;20533;-70
2022/09/28 00:08:30;;;;;;;2.40;2.08;;;9.90;99.90;;;;;;2041808;29;20016;-71
2022/09/28 00:09:31;;;;;;;2.38;2.10;;;9.80;99.90;;;;;;2050698;28;20127;-72
2022/09/28 00:10:31;;;;;;;3.45;2.25;;;9.80;99.90;;;;;;2042793;29;20390;-70
2022/09/28 00:11:33;;;;;;;3.55;2.50;;;9.80;99.90;;;;;;2034289;29;20505;-70
2022/09/28 00:12:33;;;;;;;3.00;2.15;;;9.80;99.90;;;;;;2042344;29;20035;-71
2022/09/28 00:13:34;;;;;;;4.00;2.72;;;9.80;99.90;;;;;;2050470;28;20023;-70
2022/09/28 00:14:35;;;;;;;4.57;2.50;;;9.80;99.90;;;;;;2042361;29;20039;-70
2022/09/28 00:15:36;;;;;;;3.05;2.50;;;9.80;99.90;;;;;;2042405;29;20514;-70
2022/09/28 00:16:42;;;;;;;3.92;2.70;;;9.90;99.90;;;;;;2050366;29;20031;-73
2022/09/28 00:17:46;;;;;;;4.65;2.90;;;9.90;99.90;;;;;;2050193;29;20110;-71
2022/09/28 00:18:48;;;;;;;4.28;2.90;;;9.80;99.90;;;;;;2041741;29;20561;-70
2022/09/28 00:19:49;;;;;;;3.00;2.50;;;9.80;99.90;;;;;;2034223;29;20055;-70
2022/09/28 00:21:06;;;;;;;3.45;2.70;;;9.80;99.90;;;;;;2042139;29;20067;-71
2022/09/28 00:22:07;;;;;;;4.25;2.70;;;9.80;99.90;;;;;;2051209;29;20043;-70
2022/09/28 00:23:08;;;;;;;3.67;2.50;;;9.80;99.90;;;;;;2042689;29;20299;-71
2022/09/28 00:24:16;;;;;;;3.17;2.75;;;9.80;99.90;;;;;;2034950;29;20024;-70
2022/09/28 00:25:17;;;;;;;3.83;2.40;;;9.80;99.90;;;;;;2043973;29;20129;-70
2022/09/28 00:26:17;;;;;;;4.20;2.70;;;9.80;99.90;;;;;;2042599;29;20071;-70
2022/09/28 00:27:18;;;;;;;4.20;2.80;;;9.80;99.90;;;;;;2050461;28;20050;-70
2022/09/28 00:28:19;;;;;;;3.15;2.50;;;9.80;99.90;;;;;;2034261;29;20028;-71
2022/09/28 00:29:21;;;;;;;3.35;2.45;;;9.80;99.90;;;;;;2034237;29;20070;-70
2022/09/28 00:30:22;;;;;;;2.55;2.30;;;9.80;99.90;;;;;;2049643;29;20383;-70
2022/09/28 00:31:23;;;;;;;3.50;2.53;;;9.80;99.90;;;;;;2041763;29;20079;-73
2022/09/28 00:32:25;;;;;;;3.55;2.50;;;9.80;99.90;;;;;;2042044;29;20023;-70
2022/09/28 00:33:26;;;;;;;3.70;2.55;;;9.80;99.90;;;;;;2041797;29;20035;-70
2022/09/28 00:34:34;;;;;;;3.30;2.20;;;9.80;99.90;;;;;;2034157;29;20020;-70
2022/09/28 00:35:35;;;;;;;2.83;2.35;;;9.80;99.90;;;;;;2044038;28;20123;-70
2022/09/28 00:36:36;;;;;;;3.63;2.53;;;9.80;99.90;;;;;;2049994;28;20031;-70
2022/09/28 00:37:37;;;;;;;3.38;2.40;;;9.80;99.90;;;;;;2033879;29;20060;-71
2022/09/28 00:38:39;;;;;;;3.28;2.15;;;9.80;99.90;;;;;;2041647;29;20039;-72
2022/09/28 00:39:40;;;;;;;3.65;2.30;;;9.80;99.90;;;;;;2042366;29;20031;-69
2022/09/28 00:40:41;;;;;;;3.95;2.35;;;9.70;99.90;;;;;;2042129;29;20417;-71
2022/09/28 00:41:42;;;;;;;4.18;2.35;;;9.70;99.90;;;;;;2049797;29;20054;-71
2022/09/28 00:42:43;;;;;;;2.55;2.13;;;9.70;99.90;;;;;;2050088;28;20027;-71
2022/09/28 00:43:44;;;;;;;2.97;2.25;;;9.70;99.90;;;;;;2050601;28;20035;-70
2022/09/28 00:44:48;;;;;;;5.50;2.40;;;9.70;99.90;;;;;;2051197;29;20037;-71
2022/09/28 00:46:13;;;;;;;2.30;2.10;;;9.70;99.90;;;;;;2042778;29;20043;-70
2022/09/28 00:47:16;;;;;;;3.92;2.20;;;9.70;99.90;;;;;;2031558;29;20130;-70
2022/09/28 00:48:17;;;;;;;2.70;2.03;;;9.70;99.90;;;;;;2034936;29;20024;-71
2022/09/28 00:49:23;;;;;;;2.25;2.00;;;9.70;99.90;;;;;;2041890;29;20697;-71
2022/09/28 00:50:32;;;;;;;3.22;2.15;;;9.70;99.90;;;;;;2057704;28;20010;-71
2022/09/28 00:51:36;;;;;;;4.15;2.00;;;9.70;99.90;;;;;;2056689;28;20061;-71
2022/09/28 00:53:16;;;;;;;2.63;1.90;;;9.60;99.90;;;;;;2049660;28;20027;-71
2022/09/28 00:54:17;;;;;;;2.08;1.85;;;9.60;99.90;;;;;;2044627;29;20051;-71
2022/09/28 00:55:30;;;;;;;2.25;1.90;;;9.60;99.90;;;;;;2033418;29;20621;-71
2022/09/28 00:56:34;;;;;;;2.85;1.80;;;9.60;99.90;;;;;;2042743;29;20114;-70
2022/09/28 00:57:36;;;;;;;2.30;2.10;;;9.60;99.90;;;;;;2033729;29;20043;-71
2022/09/28 00:58:44;;;;;;;2.50;2.00;;;9.50;99.90;;;;;;2033165;29;20032;-71
2022/09/28 00:59:45;;;;;;;3.45;2.10;;;9.50;99.90;;;;;;2049022;29;20031;-72
2022/09/28 01:00:47;;;;;;;2.42;2.00;;;9.50;99.90;;;;;;2049332;29;20086;-70
2022/09/28 01:01:48;;;;;;;2.00;1.80;;;9.50;99.90;;;;;;2049567;29;20653;-70
2022/09/28 01:02:49;;;;;;;2.00;1.80;;;9.50;99.90;;;;;;2049444;28;20043;-71
2022/09/28 01:03:50;;;;;;;2.58;1.90;;;9.50;99.90;;;;;;2041382;29;20382;-70
2022/09/28 01:04:52;;;;;;;1.90;1.70;;;9.50;99.90;;;;;;2034007;29;20060;-70
2022/09/28 01:05:56;;;;;;;2.35;1.80;;;9.50;99.90;;;;;;2026461;29;20049;-70
2022/09/28 01:06:58;;;;;;;2.33;1.65;;;9.50;99.90;;;;;;2042513;29;20048;-70
2022/09/28 01:08:01;;;;;;;2.25;1.90;;;9.50;99.90;;;;;;2049714;29;20019;-70
2022/09/28 01:09:06;;;;;;;2.17;1.60;;;9.40;99.90;;;;;;2034130;29;20032;-70
2022/09/28 01:10:07;;;;;;;2.78;2.03;;;9.40;99.90;;;;;;2041911;29;20597;-70
2022/09/28 01:11:08;;;;;;;2.42;1.63;;;9.40;99.90;;;;;;2033216;29;20128;-71
2022/09/28 01:12:09;;;;;;;1.95;1.73;;;9.40;99.90;;;;;;2041339;29;20409;-70
2022/09/28 01:13:11;;;;;;;2.38;1.88;;;9.40;99.90;;;;;;2050327;29;20027;-71
2022/09/28 01:14:14;;;;;;;2.40;1.80;;;9.40;99.90;;;;;;2049836;28;20031;-71
2022/09/28 01:15:14;;;;;;;1.77;1.67;;;9.40;99.90;;;;;;2041741;29;20026;-72
2022/09/28 01:16:48;;;;;;;1.60;1.50;;;9.30;99.90;;;;;;2042048;29;20098;-70
2022/09/28 01:18:32;;;;;;;1.73;1.63;;;9.30;99.90;;;;;;2048033;29;20548;-71
2022/09/28 01:19:59;;;;;;;1.77;1.60;;;9.30;99.90;;;;;;2045309;29;20027;-71
2022/09/28 01:21:11;;;;;;;1.77;1.40;;;9.20;99.90;;;;;;2041374;29;20843;-71
2022/09/28 01:22:25;;;;;;;1.98;1.80;;;9.20;99.90;;;;;;2043022;29;20044;-70
2022/09/28 01:23:42;;;;;;;1.70;1.60;;;9.10;99.90;;;;;;2049650;29;20046;-70
2022/09/28 01:24:53;;;;;;;1.80;1.60;;;9.10;99.90;;;;;;2041704;29;20122;-70
2022/09/28 01:26:15;;;;;;;1.70;1.60;;;9.00;99.90;;;;;;2036767;29;20624;-71
2022/09/28 01:27:43;;;;;;;1.85;1.75;;;9.00;99.90;;;;;;2036754;29;20086;-70
2022/09/28 01:28:48;;;;;;;1.85;1.58;;;8.90;99.90;;;;;;2040779;29;20478;-70
2022/09/28 01:29:54;;;;;;;2.00;1.65;;;9.00;99.90;;;;;;2049687;29;20046;-71
2022/09/28 01:31:07;;;;;;;1.50;1.40;;;9.00;99.90;;;;;;2049298;29;20039;-71
2022/09/28 01:32:10;;;;;;;2.30;1.60;;;9.00;99.90;;;;;;2035201;29;20024;-71
2022/09/28 01:33:21;;;;;;;2.03;1.40;;;9.00;99.90;;;;;;2026471;29;20029;-70
2022/09/28 01:34:33;;;;;;;1.70;1.60;;;9.00;99.90;;;;;;2043139;29;20031;-70
2022/09/28 01:35:56;;;;;;;1.50;1.40;;;9.00;99.90;;;;;;2049322;29;20062;-71
2022/09/28 01:37:03;;;;;;;2.15;1.50;;;9.00;99.90;;;;;;2043564;29;20090;-70
2022/09/28 01:38:16;;;;;;;1.50;1.40;;;9.10;99.90;;;;;;2042247;29;20036;-70
2022/09/28 01:39:38;;;;;;;1.50;1.40;;;9.10;99.90;;;;;;2049677;29;20034;-70
2022/09/28 01:40:40;;;;;;;1.42;1.33;;;9.20;99.90;;;;;;2041232;29;20055;-71
2022/09/28 01:41:44;;;;;;;1.60;1.50;;;9.20;99.90;;;;;;2041693;29;20406;-71
2022/09/28 01:42:49;;;;;;;1.63;1.50;;;9.20;99.90;;;;;;2049991;28;20039;-70
2022/09/28 01:43:56;;;;;;;1.45;1.35;;;9.20;99.90;;;;;;2051076;29;20027;-70
2022/09/28 01:45:04;;;;;;;1.70;1.60;;;9.30;99.90;;;;;;2051622;28;20039;-71
2022/09/28 01:46:20;;;;;;;1.58;1.48;;;9.30;99.90;;;;;;2051779;28;20039;-70
2022/09/28 01:47:25;;;;;;;1.83;1.55;;;9.20;99.90;;;;;;2051581;29;20055;-71
2022/09/28 01:48:34;;;;;;;2.55;1.40;;;9.20;99.90;;;;;;2051296;29;20031;-71
2022/09/28 01:49:40;;;;;;;1.40;1.30;;;9.20;99.90;;;;;;2050843;29;20134;-71
2022/09/28 01:50:43;;;;;;;2.13;1.40;;;9.20;99.90;;;;;;2051107;29;20061;-71
2022/09/28 01:51:58;;;;;;;1.60;1.50;;;9.20;99.90;;;;;;2049901;28;20058;-70
2022/09/28 01:53:17;;;;;;;2.08;1.70;;;9.20;99.90;;;;;;2045068;28;20031;-70
2022/09/28 01:54:41;;;;;;;1.73;1.42;;;9.20;99.90;;;;;;2048914;29;20082;-71
2022/09/28 01:55:58;;;;;;;2.28;1.40;;;9.10;99.90;;;;;;2036947;29;20046;-70
2022/09/28 01:57:21;;;;;;;1.70;1.60;;;9.20;99.90;;;;;;2043579;29;20035;-69
2022/09/28 01:58:32;;;;;;;2.47;1.52;;;9.10;99.90;;;;;;2041257;29;20110;-69
2022/09/28 01:59:36;;;;;;;1.65;1.55;;;9.10;99.90;;;;;;2035929;29;20032;-69
2022/09/28 02:00:41;;;;;;;1.70;1.60;;;9.10;99.90;;;;;;2041407;29;20114;-69
2022/09/28 02:01:51;;;;;;;2.78;1.58;;;9.10;99.90;;;;;;2041633;29;20030;-69
2022/09/28 02:03:06;;;;;;;1.50;1.40;;;9.10;99.90;;;;;;2042609;29;20047;-69
2022/09/28 02:04:27;;;;;;;1.60;1.50;;;9.10;99.90;;;;;;2044580;29;20031;-71
2022/09/28 02:05:34;;;;;;;1.48;1.38;;;9.10;99.90;;;;;;2049266;29;20038;-71
2022/09/28 02:07:03;;;;;;;1.35;1.25;;;9.10;99.90;;;;;;2041593;29;20574;-69
2022/09/28 02:08:12;;;;;;;1.50;1.40;;;9.00;99.90;;;;;;2036682;29;20023;-72
2022/09/28 02:09:23;;;;;;;1.95;1.50;;;9.10;99.90;;;;;;2042199;29;20103;-71
2022/09/28 02:10:31;;;;;;;1.60;1.50;;;9.10;99.90;;;;;;2049029;29;20035;-70
2022/09/28 02:11:36;;;;;;;1.60;1.50;;;9.10;99.90;;;;;;2034167;29;20059;-72
2022/09/28 02:12:44;;;;;;;1.45;1.35;;;9.10;99.90;;;;;;2033793;29;20068;-70
2022/09/28 02:14:03;;;;;;;1.50;1.40;;;9.10;99.90;;;;;;2034355;29;20035;-70
2022/09/28 02:15:26;;;;;;;1.73;1.40;;;9.10;99.90;;;;;;2029975;29;20048;-70
2022/09/28 02:16:45;;;;;;;1.40;1.30;;;9.10;99.90;;;;;;2044216;29;20027;-71
2022/09/28 02:17:47;;;;;;;1.60;1.50;;;9.10;99.90;;;;;;2049190;29;20449;-71
2022/09/28 02:18:50;;;;;;;1.60;1.50;;;9.10;99.90;;;;;;2041481;29;20028;-70
2022/09/28 02:19:51;;;;;;;1.92;1.60;;;9.10;99.90;;;;;;2041519;29;20597;-71
2022/09/28 02:21:05;;;;;;;1.60;1.33;;;9.10;99.90;;;;;;2048955;29;20035;-70
2022/09/28 02:22:12;;;;;;;2.20;1.60;;;9.10;99.90;;;;;;2042561;29;20042;-72
2022/09/28 02:23:15;;;;;;;1.50;1.40;;;9.10;99.90;;;;;;2048800;29;20039;-71
2022/09/28 02:24:42;;;;;;;1.50;1.40;;;9.10;99.90;;;;;;2049347;28;20174;-71
2022/09/28 02:25:51;;;;;;;1.50;1.40;;;9.10;99.90;;;;;;2049045;29;20039;-71
2022/09/28 02:26:59;;;;;;;2.22;1.58;;;9.10;99.90;;;;;;2034036;29;20208;-71
2022/09/28 02:28:07;;;;;;;2.00;1.60;;;9.10;99.90;;;;;;2028204;29;20088;-71
2022/09/28 02:29:08;;;;;;;1.60;1.50;;;9.10;99.90;;;;;;2033885;29;20086;-70
2022/09/28 02:30:09;;;;;;;1.45;1.35;;;9.10;99.90;;;;;;2033158;29;20025;-70
2022/09/28 02:31:10;;;;;;;1.63;1.52;;;9.10;99.90;;;;;;2048889;28;20023;-71
2022/09/28 02:32:11;;;;;;;1.85;1.70;;;9.10;99.90;;;;;;2048359;28;20066;-71
2022/09/28 02:33:27;;;;;;;2.92;1.77;;;9.10;99.90;;;;;;2048417;28;20024;-72
2022/09/28 02:34:27;;;;;;;1.95;1.75;;;9.10;99.90;;;;;;2048401;29;20031;-73
2022/09/28 02:35:28;;;;;;;2.33;1.88;;;9.10;99.90;;;;;;2048338;29;20062;-71
2022/09/28 02:36:31;;;;;;;2.53;2.08;;;9.10;99.90;;;;;;2040213;29;20418;-71
2022/09/28 02:37:31;;;;;;;3.00;1.90;;;9.10;99.90;;;;;;2032814;29;20067;-71
2022/09/28 02:38:33;;;;;;;3.17;2.08;;;9.20;99.90;;;;;;2040446;29;20502;-71
2022/09/28 02:39:33;;;;;;;2.00;1.90;;;9.20;99.90;;;;;;2040346;29;20090;-70
2022/09/28 02:40:36;;;;;;;2.00;1.80;;;9.20;99.90;;;;;;2032749;29;20060;-71
2022/09/28 02:41:53;;;;;;;2.88;2.10;;;9.20;99.90;;;;;;2041082;29;20028;-71
2022/09/28 02:43:15;;;;;;;2.55;1.95;;;9.20;99.90;;;;;;2040680;29;20032;-71
2022/09/28 02:44:36;;;;;;;2.47;1.90;;;9.20;99.90;;;;;;2043625;29;20031;-71
2022/09/28 02:46:00;;;;;;;2.22;2.03;;;9.20;99.90;;;;;;2040375;29;20115;-71
2022/09/28 02:47:34;;;;;;;2.25;2.05;;;9.20;99.90;;;;;;2044448;29;20046;-71
2022/09/28 02:49:06;;;;;;;3.40;2.10;;;9.20;99.90;;;;;;2039523;29;20084;-71
2022/09/28 02:50:49;;;;;;;3.40;2.03;;;9.20;99.90;;;;;;2044778;29;20031;-71
2022/09/28 02:52:34;;;;;;;2.63;2.13;;;9.20;99.90;;;;;;2048704;29;20242;-71
2022/09/28 02:54:01;;;;;;;2.80;2.20;;;9.10;99.90;;;;;;2048173;29;20031;-70
2022/09/28 02:55:18;;;;;;;3.08;2.35;;;9.10;99.90;;;;;;2048674;29;20525;-71
2022/09/28 02:56:44;;;;;;;2.60;2.20;;;9.00;99.90;;;;;;2050535;28;20025;-71
2022/09/28 02:57:45;;;;;;;2.67;2.40;;;9.00;99.90;;;;;;2048324;29;20042;-71
2022/09/28 02:58:59;;;;;;;2.90;2.20;;;9.00;99.90;;;;;;2048089;28;20048;-71
2022/09/28 03:00:09;;;;;;;2.50;2.22;;;9.00;99.90;;;;;;2048445;29;20023;-71
2022/09/28 03:01:42;;;;;;;3.00;2.28;;;8.90;99.90;;;;;;2040298;29;20024;-70
2022/09/28 03:03:08;;;;;;;2.95;2.22;;;8.90;99.90;;;;;;2045531;29;20127;-70
2022/09/28 03:04:25;;;;;;;2.88;2.40;;;8.90;99.90;;;;;;2041391;29;20031;-70
2022/09/28 03:06:01;;;;;;;2.90;2.17;;;8.80;99.90;;;;;;2037745;29;20042;-70
2022/09/28 03:07:31;;;;;;;2.80;2.13;;;8.80;99.90;;;;;;2046310;29;20548;-71
2022/09/28 03:08:43;;;;;;;2.60;2.20;;;8.70;99.90;;;;;;2033243;29;20027;-71
2022/09/28 03:10:02;;;;;;;4.22;2.20;;;8.70;99.90;;;;;;2050349;29;20043;-71
2022/09/28 03:11:08;;;;;;;2.22;1.92;;;8.60;99.90;;;;;;2036090;29;20028;-70
2022/09/28 03:12:12;;;;;;;2.85;2.10;;;8.60;99.90;;;;;;2035475;29;20032;-70
2022/09/28 03:13:13;;;;;;;4.55;2.30;;;8.60;99.90;;;;;;2034489;29;20426;-70
2022/09/28 03:14:16;;;;;;;2.15;1.95;;;8.60;99.90;;;;;;2041727;29;20418;-71
2022/09/28 03:15:25;;;;;;;2.70;2.17;;;8.60;99.90;;;;;;2050288;28;20674;-71
2022/09/28 03:16:30;;;;;;;2.95;2.22;;;8.60;99.90;;;;;;2041237;29;20544;-71
2022/09/28 03:17:31;;;;;;;2.97;2.03;;;8.50;99.90;;;;;;2041933;29;20044;-71
2022/09/28 03:18:32;;;;;;;2.85;2.08;;;8.50;99.90;;;;;;2040641;29;20558;-70
2022/09/28 03:19:33;;;;;;;2.10;1.90;;;8.50;99.90;;;;;;2048844;29;20031;-70
2022/09/28 03:20:34;;;;;;;2.65;2.33;;;8.50;99.90;;;;;;2040787;29;20031;-70
2022/09/28 03:21:36;;;;;;;4.88;2.50;;;8.50;99.90;;;;;;2033110;29;20028;-70
2022/09/28 03:22:37;;;;;;;3.13;2.67;;;8.50;99.90;;;;;;2049167;29;20094;-70
2022/09/28 03:23:38;;;;;;;4.90;2.65;;;8.50;99.90;;;;;;2041255;29;20081;-70
2022/09/28 03:24:39;;;;;;;3.40;2.63;;;8.50;99.90;;;;;;2041325;29;20036;-70
2022/09/28 03:25:40;;;;;;;2.85;2.30;;;8.50;99.90;;;;;;2049275;29;20036;-71
2022/09/28 03:26:41;;;;;;;3.00;2.30;;;8.50;99.90;;;;;;2048544;29;20023;-71
2022/09/28 03:27:42;;;;;;;3.05;2.50;;;8.50;99.90;;;;;;2048654;29;20102;-71
2022/09/28 03:28:43;;;;;;;3.25;2.33;;;8.50;99.90;;;;;;2040452;29;20083;-71
2022/09/28 03:29:49;;;;;;;3.08;2.45;;;8.50;99.90;;;;;;2041181;29;20063;-71
2022/09/28 03:30:50;;;;;;;3.38;2.30;;;8.50;99.90;;;;;;2048382;29;20465;-72
2022/09/28 03:31:51;;;;;;;3.25;2.25;;;8.50;99.90;;;;;;2048457;28;20489;-71
2022/09/28 03:32:59;;;;;;;2.78;2.30;;;8.50;99.90;;;;;;2056802;28;20058;-70
2022/09/28 03:34:01;;;;;;;2.65;2.40;;;8.50;99.90;;;;;;2041010;29;20028;-77
2022/09/28 03:35:03;;;;;;;3.45;2.20;;;8.50;99.90;;;;;;2034535;29;20032;-77
2022/09/28 03:36:04;;;;;;;2.78;2.10;;;8.60;99.90;;;;;;2027410;29;20067;-77
2022/09/28 03:37:05;;;;;;;2.50;2.20;;;8.60;99.90;;;;;;2034929;29;20028;-76
2022/09/28 03:38:06;;;;;;;2.30;2.10;;;8.60;99.90;;;;;;2050640;28;20031;-76
2022/09/28 03:39:10;;;;;;;2.00;1.90;;;8.70;99.90;;;;;;2042318;29;20148;-76
2022/09/28 03:40:12;;;;;;;2.05;1.85;;;8.70;99.90;;;;;;2043506;29;20114;-77
2022/09/28 03:41:12;;;;;;;2.92;2.10;;;8.80;99.90;;;;;;2050600;28;20035;-76
2022/09/28 03:42:16;;;;;;;1.88;1.77;;;8.80;99.90;;;;;;2035576;29;20032;-76
2022/09/28 03:43:23;;;;;;;2.45;2.00;;;8.90;99.90;;;;;;2036957;29;20367;-76
2022/09/28 03:44:25;;;;;;;2.20;2.00;;;8.90;99.90;;;;;;2042749;29;20042;-76
2022/09/28 03:45:25;;;;;;;2.08;1.88;;;9.00;99.90;;;;;;2035018;29;20036;-76
2022/09/28 03:46:26;;;;;;;2.38;2.00;;;9.00;99.90;;;;;;2035202;29;20063;-78
2022/09/28 03:47:30;;;;;;;2.10;1.90;;;9.00;99.90;;;;;;2035958;29;20028;-78
2022/09/28 03:48:34;;;;;;;3.20;2.00;;;9.10;99.90;;;;;;2027514;29;20061;-76
2022/09/28 03:49:35;;;;;;;2.42;1.90;;;9.10;99.90;;;;;;2035962;29;20059;-77
2022/09/28 03:50:36;;;;;;;4.30;2.25;;;9.10;99.90;;;;;;2043782;29;20064;-75
2022/09/28 03:51:36;;;;;;;2.90;2.30;;;9.20;99.90;;;;;;2051926;28;20042;-76
2022/09/28 03:52:37;;;;;;;3.38;2.15;;;9.20;99.90;;;;;;2054464;29;20027;-77
2022/09/28 03:53:38;;;;;;;4.13;2.30;;;9.30;99.90;;;;;;2047554;29;20028;-77
2022/09/28 03:54:40;;;;;;;3.83;2.30;;;9.30;99.90;;;;;;2053836;29;20024;-76
2022/09/28 03:55:41;;;;;;;2.40;2.20;;;9.40;99.90;;;;;;2054460;29;20031;-77
2022/09/28 03:56:41;;;;;;;3.33;2.28;;;9.40;99.90;;;;;;2038949;29;20035;-77
2022/09/28 03:57:42;;;;;;;2.40;2.20;;;9.40;99.90;;;;;;2037475;29;20122;-72
2022/09/28 03:58:43;;;;;;;2.80;2.25;;;9.40;99.90;;;;;;2036979;29;20044;-72
2022/09/28 03:59:45;;;;;;;3.67;2.20;;;9.40;99.90;;;;;;2029944;29;20138;-73
2022/09/28 04:00:49;;;;;;;3.47;2.30;;;9.40;99.90;;;;;;2045654;29;20062;-71
2022/09/28 04:01:51;;;;;;;3.00;2.42;;;9.50;99.90;;;;;;2053847;28;20301;-73
2022/09/28 04:02:52;;;;;;;4.45;2.30;;;9.50;99.90;;;;;;2052986;28;20027;-73
2022/09/28 04:03:54;;;;;;;2.10;2.00;;;9.50;99.90;;;;;;2043463;29;20205;-72
2022/09/28 04:04:55;;;;;;;2.83;1.85;;;9.50;99.90;;;;;;2043247;29;20028;-73
2022/09/28 04:05:56;;;;;;;3.13;1.88;;;9.50;99.90;;;;;;2051347;29;20027;-73
2022/09/28 04:06:58;;;;;;;2.58;2.13;;;9.50;99.90;;;;;;2051537;28;20027;-72
2022/09/28 04:08:00;;;;;;;3.72;2.00;;;9.50;99.90;;;;;;2043840;29;20739;-72
2022/09/28 04:09:00;;;;;;;2.90;2.20;;;9.60;99.90;;;;;;2042803;29;20047;-72
2022/09/28 04:10:02;;;;;;;2.78;2.22;;;9.60;99.90;;;;;;2051280;28;20023;-73
2022/09/28 04:11:03;;;;;;;2.53;2.10;;;9.60;99.90;;;;;;2050634;29;20028;-72
2022/09/28 04:12:05;;;;;;;2.35;2.15;;;9.60;99.90;;;;;;2050707;29;20070;-72
2022/09/28 04:13:06;;;;;;;2.33;2.05;;;9.60;99.90;;;;;;2043536;29;20035;-72
2022/09/28 04:14:07;;;;;;;2.45;2.00;;;9.60;99.90;;;;;;2042700;29;20058;-72
2022/09/28 04:15:09;;;;;;;3.65;2.30;;;9.60;99.90;;;;;;2043188;29;20028;-74
2022/09/28 04:16:10;;;;;;;2.92;2.35;;;9.60;99.90;;;;;;2042883;29;20031;-72
2022/09/28 04:17:11;;;;;;;2.17;1.98;;;9.60;99.90;;;;;;2043252;29;20055;-72
2022/09/28 04:18:13;;;;;;;2.00;1.90;;;9.60;99.90;;;;;;2051220;29;20043;-72
2022/09/28 04:19:28;;;;;;;2.00;1.90;;;9.60;99.90;;;;;;2051451;29;20027;-72
2022/09/28 04:20:32;;;;;;;2.60;2.00;;;9.60;99.90;;;;;;2051391;28;20629;-72
2022/09/28 04:23:05;;;;;;;2.20;2.00;;;9.60;99.90;;;;;;2037909;29;20072;-79
2022/09/28 04:24:05;;;;;;;2.40;2.08;;;9.60;99.90;;;;;;2034079;29;20025;-78
2022/09/28 04:25:06;;;;;;;2.13;1.92;;;9.60;99.90;;;;;;2039802;29;20068;-79
2022/09/28 04:26:17;;;;;;;2.15;2.00;;;9.60;99.90;;;;;;2041234;29;20047;-76
2022/09/28 04:29:57;;;;;;;2.13;1.92;;;9.50;99.90;;;;;;2026841;29;20572;-77
2022/09/28 04:30:58;;;;;;;2.58;1.80;;;9.50;99.90;;;;;;2026937;29;20036;-77
2022/09/28 04:32:00;;;;;;;2.30;2.10;;;9.50;99.90;;;;;;2034254;29;20562;-78
2022/09/28 04:33:06;;;;;;;2.28;2.10;;;9.50;99.90;;;;;;2027196;29;20032;-76
2022/09/28 04:34:08;;;;;;;2.22;2.00;;;9.50;99.90;;;;;;2027529;29;20056;-76
2022/09/28 04:35:11;;;;;;;2.97;1.80;;;9.50;99.90;;;;;;2034437;29;20497;-77
2022/09/28 04:36:11;;;;;;;2.17;1.92;;;9.50;99.90;;;;;;2035290;29;20152;-78
2022/09/28 04:37:13;;;;;;;3.05;2.00;;;9.50;99.90;;;;;;2035291;29;20024;-78
2022/09/28 04:38:14;;;;;;;2.45;2.20;;;9.40;99.90;;;;;;2027821;29;20043;-78
2022/09/28 04:39:17;;;;;;;2.53;2.28;;;9.40;99.90;;;;;;2027099;29;20028;-75
2022/09/28 04:40:21;;;;;;;2.78;1.98;;;9.40;99.90;;;;;;2027044;29;20035;-78
2022/09/28 04:41:22;;;;;;;2.50;2.30;;;9.40;99.90;;;;;;2026999;29;20522;-78
2022/09/28 04:42:23;;;;;;;2.90;2.60;;;9.30;99.90;;;;;;2035480;29;20032;-79
2022/09/28 04:43:25;;;;;;;3.45;2.50;;;9.30;99.90;;;;;;2028062;29;20032;-78
2022/09/28 04:44:27;;;;;;;3.33;2.45;;;9.30;99.90;;;;;;2027167;29;20267;-78
2022/09/28 04:45:32;;;;;;;3.97;3.45;;;9.30;99.90;;;;;;2020702;29;20067;-79
2022/09/28 04:46:40;;;;;;;6.72;4.82;;;9.20;99.90;;;;;;2022603;29;20368;-78
2022/09/28 04:47:59;;;;;;;6.38;4.90;;;9.20;99.90;;;;;;2035797;29;20503;-78
2022/09/28 04:49:18;;;;;;;5.65;4.20;;;9.20;99.90;;;;;;2036951;29;20036;-79
2022/09/28 04:50:24;;;;;;;5.35;4.20;;;9.20;99.90;;;;;;2035803;29;20019;-79
2022/09/28 04:51:46;;;;;;;6.53;4.05;;;9.20;99.90;;;;;;2028484;29;20100;-79
2022/09/28 04:52:46;;;;;;;5.65;3.97;;;9.20;99.90;;;;;;2027742;29;20029;-78
2022/09/28 04:53:48;;;;;;;5.35;4.35;;;9.10;99.90;;;;;;2035327;29;20024;-78
2022/09/28 04:54:49;;;;;;;6.85;4.25;;;9.10;99.90;;;;;;2035462;29;20024;-78
2022/09/28 04:56:01;;;;;;;7.18;4.72;;;9.10;99.90;;;;;;2034737;29;20091;-78
2022/09/28 04:57:04;;;;;;;6.80;5.20;;;9.10;99.90;;;;;;2027385;29;20047;-77
2022/09/28 04:58:06;;;;;;;8.18;5.78;;;9.00;99.90;;;;;;2025795;29;20132;-78
2022/09/28 04:59:06;;;;;;;7.53;5.43;;;9.00;99.90;;;;;;2025992;29;20028;-77
2022/09/28 05:00:09;;;;;;;7.07;5.25;;;9.00;99.90;;;;;;2026339;29;20408;-77
2022/09/28 05:01:13;;;;;;;8.52;5.57;;;9.00;99.90;;;;;;2026631;29;20032;-78
2022/09/28 05:02:32;;;;;;;8.32;6.10;;;9.00;99.90;;;;;;2034589;29;20036;-78
2022/09/28 05:03:52;;;;;;;9.82;6.55;;;9.00;99.90;;;;;;2034242;29;20040;-78
2022/09/28 05:05:13;;;;;;;10.27;7.13;;;9.00;99.90;;;;;;2034428;29;20024;-77
2022/09/28 05:06:37;;;;;;;10.05;6.95;;;9.00;99.90;;;;;;2017987;29;20053;-78
2022/09/28 05:07:42;;;;;;;9.80;7.30;;;9.00;99.90;;;;;;2025750;29;20037;-78
2022/09/28 05:08:45;;;;;;;11.65;7.20;;;9.00;99.90;;;;;;2027089;29;20033;-79
2022/09/28 05:09:46;;;;;;;10.60;7.38;;;9.00;99.90;;;;;;2026395;29;20132;-78
2022/09/28 05:10:59;;;;;;;11.60;7.43;;;9.00;99.90;;;;;;2027124;29;20491;-78
2022/09/28 05:12:00;;;;;;;11.25;7.38;;;9.00;99.90;;;;;;2026650;29;20414;-78
2022/09/28 05:13:01;;;;;;;11.73;7.63;;;9.00;99.90;;;;;;2026757;29;20016;-78
2022/09/28 05:14:02;;;;;;;14.20;8.30;;;9.00;99.90;;;;;;2034639;29;20465;-77
2022/09/28 05:15:03;;;;;;;12.80;7.65;;;9.00;99.90;;;;;;2034281;29;20062;-78
2022/09/28 05:16:04;;;;;;;11.18;7.78;;;9.00;99.90;;;;;;2026471;29;20037;-77
2022/09/28 05:17:06;;;;;;;10.60;7.88;;;9.00;99.90;;;;;;2025998;29;20051;-77
2022/09/28 05:18:13;;;;;;;12.95;8.07;;;9.00;99.90;;;;;;2034508;29;20036;-78
2022/09/28 05:19:25;;;;;;;13.93;7.72;;;9.00;99.90;;;;;;2035836;29;20114;-77
2022/09/28 05:20:31;;;;;;;13.93;7.80;;;9.10;99.90;;;;;;2028637;29;20039;-77
2022/09/28 05:21:31;;;;;;;12.55;7.57;;;9.00;99.90;;;;;;2027220;29;20032;-78
2022/09/28 05:22:32;;;;;;;10.60;7.80;;;9.00;99.90;;;;;;2027260;29;20063;-79
2022/09/28 05:23:33;;;;;;;10.68;7.35;;;9.00;99.90;;;;;;2027945;29;20577;-79
2022/09/28 05:24:34;;;;;;;10.32;7.57;;;9.00;99.90;;;;;;2019970;29;20508;-79
2022/09/28 05:25:34;;;;;;;13.57;8.13;;;9.00;99.90;;;;;;2026735;29;20069;-76
2022/09/28 05:26:42;;;;;;;9.95;7.68;;;9.00;99.90;;;;;;2034763;29;20036;-76
2022/09/28 05:27:44;;;;;;;10.35;7.53;;;9.00;99.90;;;;;;2026432;29;20072;-76
2022/09/28 05:29:02;;;;;;;11.80;8.18;;;9.00;99.90;;;;;;2028727;29;20033;-79
2022/09/28 05:30:33;;;;;;;10.25;7.50;;;9.00;99.90;;;;;;2010576;29;20033;-78
2022/09/28 05:31:55;;;;;;;13.73;7.93;;;8.90;99.90;;;;;;2009063;29;20026;-78
2022/09/28 05:33:09;;;;;;;13.43;9.07;;;9.00;99.90;;;;;;2027320;29;20016;-77
2022/09/28 05:34:19;;;;;;;13.38;8.63;;;9.00;99.90;;;;;;2033199;29;20028;-74
2022/09/28 05:35:19;;;;;;;15.73;10.02;;;9.00;99.90;;;;;;2024442;29;20089;-75
2022/09/28 05:36:22;;;;;;;19.77;11.43;;;9.00;99.90;;;;;;2024454;29;20108;-71
2022/09/28 05:37:23;;;;;;;26.17;13.15;;;9.00;99.90;;;;;;2032247;29;20031;-75
2022/09/28 05:38:24;;;;;;;24.38;13.07;;;9.00;99.90;;;;;;2032382;29;20028;-69
2022/09/28 05:39:24;;;;;;;27.80;13.25;;;9.10;99.90;;;;;;2032137;29;20837;-70
2022/09/28 05:40:25;;;;;;;25.08;12.55;;;9.10;99.90;;;;;;2032382;29;20626;-71
2022/09/28 05:41:26;;;;;;;26.58;12.38;;;9.10;99.90;;;;;;2024457;29;20025;-73
2022/09/28 05:42:26;;;;;;;28.98;12.80;;;9.10;99.90;;;;;;2024269;29;20510;-72
2022/09/28 05:43:27;;;;;;;28.23;12.70;;;9.10;99.90;;;;;;2032358;29;20028;-72
2022/09/28 05:44:28;;;;;;;24.00;11.82;;;9.10;99.90;;;;;;2032159;29;20510;-72
2022/09/28 05:45:29;;;;;;;25.77;11.43;;;9.10;99.90;;;;;;2024409;29;20028;-69
2022/09/28 05:46:30;;;;;;;24.35;10.68;;;9.20;99.90;;;;;;2024418;29;20032;-75
2022/09/28 05:47:38;;;;;;;21.52;10.70;;;9.20;99.90;;;;;;2032200;29;20035;-73
2022/09/28 05:48:42;;;;;;;19.77;10.35;;;9.20;99.90;;;;;;2031974;29;20032;-77
2022/09/28 05:49:43;;;;;;;19.73;10.07;;;9.30;99.90;;;;;;2032153;29;20234;-73
2022/09/28 05:50:52;;;;;;;18.05;9.40;;;9.30;99.90;;;;;;2032054;29;20226;-72
2022/09/28 05:51:54;;;;;;;15.10;8.50;;;9.30;99.90;;;;;;2032130;29;20514;-73
2022/09/28 05:53:04;;;;;;;14.27;8.98;;;9.30;99.90;;;;;;2029423;29;20037;-80
2022/09/28 05:54:05;;;;;;;15.25;8.65;;;9.40;99.90;;;;;;2029730;29;20113;-73
2022/09/28 05:55:06;;;;;;;12.57;8.90;;;9.40;99.90;;;;;;2024360;29;20128;-76